Time;durP1;ratioP1;P1;durP2;ratioP2;P2;SDS_P1;SDS_P2;PMS_P1;PMS_P2;Temp;Humidity;BMP_temperature;BMP_pressure;BME280_temperature;BME280_humidity;BME280_pressure;Samples;Min_cycle;Max_cycle;Signal;HPM_P1;HPM_P2
2022/10/09 00:01:02;;;;;;;6.00;1.87;;;9.90;99.90;;;;;;5014231;28;20292;-50
2022/10/09 00:03:31;;;;;;;6.30;1.63;;;9.90;99.90;;;;;;5013894;28;20236;-48
2022/10/09 00:05:59;;;;;;;5.53;2.63;;;9.90;99.90;;;;;;5014260;28;20643;-48
2022/10/09 00:08:27;;;;;;;6.57;1.90;;;9.80;99.90;;;;;;5014122;28;20261;-50
2022/10/09 00:10:56;;;;;;;7.47;1.83;;;9.80;99.90;;;;;;5014002;28;20288;-48
2022/10/09 00:13:24;;;;;;;7.83;2.20;;;9.80;99.90;;;;;;5014250;28;20231;-48
2022/10/09 00:15:52;;;;;;;5.67;1.80;;;9.80;99.90;;;;;;5014472;28;20222;-48
2022/10/09 00:18:20;;;;;;;6.40;2.00;;;9.90;99.90;;;;;;5014271;28;20677;-47
2022/10/09 00:20:48;;;;;;;6.27;1.80;;;9.90;99.90;;;;;;5014105;28;20242;-47
2022/10/09 00:23:17;;;;;;;7.77;1.90;;;10.00;99.90;;;;;;5013881;28;20218;-49
2022/10/09 00:25:53;;;;;;;5.57;1.90;;;10.00;99.90;;;;;;5014124;28;20570;-47
2022/10/09 00:28:24;;;;;;;6.77;2.10;;;10.00;99.90;;;;;;5014286;28;20233;-47
2022/10/09 00:30:53;;;;;;;6.13;1.80;;;10.10;99.90;;;;;;5013619;28;20273;-50
2022/10/09 00:33:21;;;;;;;9.50;2.17;;;10.20;99.90;;;;;;5014117;28;20575;-50
2022/10/09 00:35:49;;;;;;;7.33;1.90;;;10.20;99.90;;;;;;5013680;28;20242;-50
2022/10/09 00:38:17;;;;;;;7.17;1.70;;;10.20;99.90;;;;;;5014138;28;20628;-49
2022/10/09 00:40:45;;;;;;;6.33;1.90;;;10.20;99.90;;;;;;5013780;28;20702;-50
2022/10/09 00:43:16;;;;;;;9.37;1.97;;;10.30;99.90;;;;;;5013516;28;20217;-49
2022/10/09 00:45:49;;;;;;;9.63;2.40;;;10.20;99.90;;;;;;5013807;28;20692;-48
2022/10/09 00:48:19;;;;;;;7.83;1.80;;;10.20;99.90;;;;;;5013574;28;20232;-50
2022/10/09 00:50:52;;;;;;;11.00;2.43;;;10.20;99.90;;;;;;5013276;28;20233;-46
2022/10/09 00:53:22;;;;;;;5.53;1.87;;;10.30;99.90;;;;;;5013526;28;20237;-48
2022/10/09 00:55:51;;;;;;;6.27;2.57;;;10.20;99.90;;;;;;5013723;28;20232;-50
2022/10/09 00:58:21;;;;;;;8.43;2.20;;;10.30;99.90;;;;;;5013745;28;20230;-48
2022/10/09 01:00:50;;;;;;;7.10;2.10;;;10.20;99.90;;;;;;5012924;28;20658;-49
2022/10/09 01:03:18;;;;;;;7.37;1.70;;;10.30;99.90;;;;;;5013323;28;20236;-48
2022/10/09 01:05:58;;;;;;;8.70;1.90;;;10.30;99.90;;;;;;5013004;28;20638;-49
2022/10/09 01:08:31;;;;;;;6.87;1.77;;;10.20;99.90;;;;;;5012846;28;20225;-50
2022/10/09 01:11:05;;;;;;;8.37;1.90;;;10.20;99.90;;;;;;5013071;28;20245;-49
2022/10/09 01:13:38;;;;;;;8.53;2.40;;;10.30;99.90;;;;;;5012809;28;20638;-48
2022/10/09 01:16:14;;;;;;;7.70;1.83;;;10.20;99.90;;;;;;5013220;28;20272;-47
2022/10/09 01:18:51;;;;;;;7.47;2.20;;;10.20;99.90;;;;;;5012992;28;20373;-50
2022/10/09 01:21:29;;;;;;;6.73;2.30;;;10.20;99.90;;;;;;5013144;28;20692;-47
2022/10/09 01:24:14;;;;;;;5.23;2.03;;;10.20;99.90;;;;;;5013075;28;20233;-49
2022/10/09 01:27:00;;;;;;;8.13;2.27;;;10.20;99.90;;;;;;5013186;28;20571;-48
2022/10/09 01:29:32;;;;;;;8.40;2.53;;;10.20;99.90;;;;;;5013094;28;20236;-47
2022/10/09 01:32:02;;;;;;;9.27;2.40;;;10.10;99.90;;;;;;5012449;28;20258;-49
2022/10/09 01:34:32;;;;;;;5.13;2.10;;;10.10;99.90;;;;;;5012799;28;20654;-48
2022/10/09 01:37:01;;;;;;;5.30;1.77;;;10.10;99.90;;;;;;5013229;28;20229;-50
2022/10/09 01:39:31;;;;;;;6.07;2.13;;;10.20;99.90;;;;;;5013010;28;20231;-47
2022/10/09 01:42:02;;;;;;;7.87;2.43;;;10.20;99.90;;;;;;5012663;28;20234;-48
2022/10/09 01:44:32;;;;;;;8.23;2.60;;;10.10;99.90;;;;;;5012518;28;20238;-50
2022/10/09 01:47:00;;;;;;;6.47;2.47;;;10.10;99.90;;;;;;5012733;28;20230;-48
2022/10/09 01:49:43;;;;;;;6.40;2.40;;;10.10;99.90;;;;;;5012256;28;20240;-47
2022/10/09 01:52:30;;;;;;;9.60;2.40;;;10.10;99.90;;;;;;5012725;28;20248;-48
2022/10/09 01:55:08;;;;;;;7.27;2.10;;;10.10;99.90;;;;;;5013058;28;20233;-50
2022/10/09 01:57:46;;;;;;;11.30;2.83;;;10.00;99.90;;;;;;5012841;28;20235;-47
2022/10/09 02:00:14;;;;;;;4.63;2.30;;;10.00;99.90;;;;;;5012538;28;20308;-50
2022/10/09 02:02:43;;;;;;;7.33;2.40;;;9.90;99.90;;;;;;5012565;28;20223;-47
2022/10/09 02:05:17;;;;;;;9.07;3.00;;;9.90;99.90;;;;;;5012543;28;20728;-49
2022/10/09 02:07:45;;;;;;;8.63;2.80;;;9.90;99.90;;;;;;5012503;28;20245;-47
2022/10/09 02:10:15;;;;;;;6.33;2.30;;;9.80;99.90;;;;;;5012727;28;20222;-47
2022/10/09 02:12:50;;;;;;;7.93;2.47;;;9.90;99.90;;;;;;5012463;28;20284;-48
2022/10/09 02:15:20;;;;;;;6.17;2.10;;;9.90;99.90;;;;;;4993229;28;20232;-47
2022/10/09 02:17:51;;;;;;;7.03;1.90;;;9.80;99.90;;;;;;5007777;28;20238;-48
2022/10/09 02:20:24;;;;;;;5.87;2.27;;;9.80;99.90;;;;;;5015188;28;20226;-50
2022/10/09 02:22:55;;;;;;;7.37;2.60;;;9.80;99.90;;;;;;5016601;28;20300;-50
2022/10/09 02:25:24;;;;;;;6.57;2.43;;;9.70;99.90;;;;;;5016487;28;20237;-47
2022/10/09 02:27:53;;;;;;;6.63;2.67;;;9.70;99.90;;;;;;5016479;28;20245;-49
2022/10/09 02:30:24;;;;;;;13.70;2.23;;;9.70;99.90;;;;;;5016065;28;20230;-47
2022/10/09 02:32:53;;;;;;;8.73;2.80;;;9.60;99.90;;;;;;5016052;28;20238;-47
2022/10/09 02:35:22;;;;;;;6.63;2.80;;;9.60;99.90;;;;;;5016379;28;20728;-48
2022/10/09 02:37:50;;;;;;;8.23;2.40;;;9.50;99.90;;;;;;5015928;28;20222;-48
2022/10/09 02:40:18;;;;;;;9.70;2.47;;;9.50;99.90;;;;;;5016259;28;20237;-50
2022/10/09 02:42:46;;;;;;;5.63;2.20;;;9.50;99.90;;;;;;5015569;28;20229;-48
2022/10/09 02:45:16;;;;;;;6.67;2.57;;;9.50;99.90;;;;;;5015930;28;20309;-49
2022/10/09 02:47:43;;;;;;;5.67;2.23;;;9.50;99.90;;;;;;5015605;28;20241;-48
2022/10/09 02:50:13;;;;;;;8.83;2.53;;;9.50;99.90;;;;;;5015388;28;20272;-47
2022/10/09 02:52:41;;;;;;;8.63;2.47;;;9.50;99.90;;;;;;5015768;28;20693;-48
2022/10/09 02:55:09;;;;;;;7.47;2.60;;;9.50;99.90;;;;;;5015498;28;20237;-50
2022/10/09 02:57:37;;;;;;;6.57;2.40;;;9.50;99.90;;;;;;5015851;28;20594;-47
2022/10/09 03:00:06;;;;;;;7.37;2.50;;;9.40;99.90;;;;;;5015958;28;20793;-49
2022/10/09 03:02:35;;;;;;;7.20;2.63;;;9.30;99.90;;;;;;5015033;28;20713;-49
2022/10/09 03:05:04;;;;;;;6.77;2.30;;;9.30;99.90;;;;;;5015603;28;20217;-49
2022/10/09 03:07:32;;;;;;;8.73;2.60;;;9.30;99.90;;;;;;5015416;28;20623;-48
2022/10/09 03:10:00;;;;;;;6.30;2.67;;;9.30;99.90;;;;;;5015556;28;20218;-48
2022/10/09 03:12:28;;;;;;;5.53;2.40;;;9.30;99.90;;;;;;5015075;28;20276;-48
2022/10/09 03:14:56;;;;;;;7.23;2.60;;;9.30;99.90;;;;;;5015137;28;20283;-48
2022/10/09 03:17:24;;;;;;;9.43;3.13;;;9.20;99.90;;;;;;5015204;28;20231;-49
2022/10/09 03:19:53;;;;;;;7.77;2.30;;;9.20;99.90;;;;;;5015223;28;20716;-48
2022/10/09 03:22:21;;;;;;;5.70;2.57;;;9.20;99.90;;;;;;5015052;28;20233;-47
2022/10/09 03:24:49;;;;;;;6.47;2.50;;;9.20;99.90;;;;;;5015036;28;20627;-48
2022/10/09 03:27:17;;;;;;;8.73;2.50;;;9.20;99.90;;;;;;5015441;28;20581;-47
2022/10/09 03:29:45;;;;;;;5.37;2.80;;;9.10;99.90;;;;;;5013963;28;20237;-47
2022/10/09 03:32:13;;;;;;;8.50;2.60;;;9.10;99.90;;;;;;5012733;28;20242;-48
2022/10/09 03:34:41;;;;;;;6.80;2.60;;;9.00;99.90;;;;;;5014323;28;20311;-48
2022/10/09 03:37:11;;;;;;;5.20;2.50;;;9.00;99.90;;;;;;5014860;28;20621;-47
2022/10/09 03:39:39;;;;;;;5.10;2.70;;;9.00;99.90;;;;;;5014599;28;20260;-48
2022/10/09 03:42:07;;;;;;;7.10;2.70;;;9.00;99.90;;;;;;5012263;28;20225;-50
2022/10/09 03:44:35;;;;;;;7.40;2.77;;;9.00;99.90;;;;;;5014551;28;20681;-47
2022/10/09 03:47:03;;;;;;;6.97;2.70;;;9.00;99.90;;;;;;5014245;28;20616;-46
2022/10/09 03:49:31;;;;;;;8.03;3.33;;;8.90;99.90;;;;;;5014041;28;20708;-47
2022/10/09 03:51:59;;;;;;;6.20;2.60;;;8.90;99.90;;;;;;5014201;28;20229;-48
2022/10/09 03:54:28;;;;;;;8.03;2.67;;;8.90;99.90;;;;;;5011875;28;20570;-49
2022/10/09 03:56:56;;;;;;;10.90;3.40;;;8.90;99.90;;;;;;5014409;28;20229;-50
2022/10/09 03:59:24;;;;;;;7.90;2.50;;;8.90;99.90;;;;;;5014296;28;20233;-50
2022/10/09 04:01:53;;;;;;;6.43;3.03;;;8.80;99.90;;;;;;5013168;28;20241;-49
2022/10/09 04:04:21;;;;;;;8.77;2.63;;;8.80;99.90;;;;;;5014189;28;20619;-48
2022/10/09 04:06:49;;;;;;;8.90;3.13;;;8.80;99.90;;;;;;5014275;28;20558;-47
2022/10/09 04:09:17;;;;;;;7.20;2.70;;;8.80;99.90;;;;;;5014657;28;20237;-46
2022/10/09 04:11:46;;;;;;;9.23;3.47;;;8.70;99.90;;;;;;5013996;28;20254;-49
2022/10/09 04:14:14;;;;;;;7.13;3.13;;;8.70;99.90;;;;;;5014445;28;20701;-47
2022/10/09 04:16:42;;;;;;;8.67;2.93;;;8.70;99.90;;;;;;5014321;28;20229;-48
2022/10/09 04:19:11;;;;;;;8.37;3.07;;;8.70;99.90;;;;;;5014015;28;20240;-49
2022/10/09 04:21:39;;;;;;;7.13;2.80;;;8.70;99.90;;;;;;5014268;28;20230;-48
2022/10/09 04:24:07;;;;;;;5.03;3.10;;;8.70;99.90;;;;;;5014109;28;20220;-48
2022/10/09 04:26:35;;;;;;;6.13;3.33;;;8.70;99.90;;;;;;5014159;28;20226;-49
2022/10/09 04:29:05;;;;;;;6.47;3.10;;;8.70;99.90;;;;;;5013972;28;20284;-49
2022/10/09 04:31:33;;;;;;;10.07;3.73;;;8.60;99.90;;;;;;5013444;28;20602;-50
2022/10/09 04:34:01;;;;;;;4.73;3.00;;;8.60;99.90;;;;;;5013645;28;20324;-50
2022/10/09 04:36:29;;;;;;;7.13;2.80;;;8.60;99.90;;;;;;5013698;28;20689;-50
2022/10/09 04:38:57;;;;;;;7.27;3.30;;;8.50;99.90;;;;;;5013796;28;20229;-49
2022/10/09 04:41:25;;;;;;;5.93;3.20;;;8.50;99.90;;;;;;5013783;28;20248;-48
2022/10/09 04:43:55;;;;;;;8.40;3.00;;;8.50;99.90;;;;;;5013907;28;20629;-50
2022/10/09 04:46:24;;;;;;;7.53;3.23;;;8.50;99.90;;;;;;5013735;28;20728;-48
2022/10/09 04:48:52;;;;;;;5.93;2.83;;;8.50;99.90;;;;;;5013184;28;20236;-46
2022/10/09 04:51:20;;;;;;;6.10;2.87;;;8.50;99.90;;;;;;5013627;28;20233;-48
2022/10/09 04:53:49;;;;;;;8.33;3.00;;;8.50;99.90;;;;;;5013585;28;20229;-46
2022/10/09 04:56:19;;;;;;;5.60;2.73;;;8.50;99.90;;;;;;5013762;28;20237;-49
2022/10/09 04:58:48;;;;;;;7.03;3.27;;;8.50;99.90;;;;;;5013581;28;20730;-48
2022/10/09 05:01:18;;;;;;;7.53;3.20;;;8.40;99.90;;;;;;5012852;28;20240;-46
2022/10/09 05:03:48;;;;;;;9.27;3.47;;;8.40;99.90;;;;;;5012962;28;20282;-49
2022/10/09 05:06:18;;;;;;;6.23;3.00;;;8.40;99.90;;;;;;5012135;28;20225;-47
2022/10/09 05:08:46;;;;;;;7.17;3.30;;;8.40;99.90;;;;;;5012929;28;20241;-49
2022/10/09 05:11:17;;;;;;;10.07;3.47;;;8.40;99.90;;;;;;5013245;28;20249;-48
2022/10/09 05:13:46;;;;;;;4.63;2.90;;;8.40;99.90;;;;;;5012857;28;20706;-48
2022/10/09 05:16:17;;;;;;;8.13;3.50;;;8.40;99.90;;;;;;5013384;28;20632;-47
2022/10/09 05:18:49;;;;;;;5.87;2.90;;;8.30;99.90;;;;;;5013069;28;20236;-49
2022/10/09 05:21:17;;;;;;;10.47;3.70;;;8.30;99.90;;;;;;5013424;28;20280;-49
2022/10/09 05:23:46;;;;;;;6.50;3.27;;;8.30;99.90;;;;;;5011730;28;20248;-46
2022/10/09 05:26:16;;;;;;;7.13;3.40;;;8.30;99.90;;;;;;5013200;28;20673;-48
2022/10/09 05:28:44;;;;;;;6.53;3.70;;;8.20;99.90;;;;;;5012741;28;20230;-50
2022/10/09 05:31:18;;;;;;;8.27;3.37;;;8.20;99.90;;;;;;5012754;28;20241;-48
2022/10/09 05:33:48;;;;;;;7.93;3.20;;;8.20;99.90;;;;;;5013024;28;20233;-48
2022/10/09 05:36:17;;;;;;;5.57;3.10;;;8.20;99.90;;;;;;5012916;28;20229;-48
2022/10/09 05:38:46;;;;;;;4.93;2.93;;;8.20;99.90;;;;;;5013041;28;20245;-49
2022/10/09 05:41:15;;;;;;;5.57;3.03;;;8.20;99.90;;;;;;5013162;28;20317;-47
2022/10/09 05:43:46;;;;;;;5.83;3.00;;;8.20;99.90;;;;;;5012732;28;20589;-48
2022/10/09 05:46:16;;;;;;;5.43;3.07;;;8.10;99.90;;;;;;5011834;28;20217;-49
2022/10/09 05:48:46;;;;;;;7.83;3.40;;;8.10;99.90;;;;;;5012366;28;20292;-48
2022/10/09 05:51:17;;;;;;;4.70;3.00;;;8.20;99.90;;;;;;5010781;28;20229;-49
2022/10/09 05:53:47;;;;;;;9.90;3.87;;;8.20;99.90;;;;;;5006539;28;20233;-48
2022/10/09 05:56:17;;;;;;;9.13;3.80;;;8.20;99.90;;;;;;5016584;28;20887;-50
2022/10/09 05:58:50;;;;;;;6.50;3.77;;;8.20;99.90;;;;;;5010861;28;20233;-49
2022/10/09 06:01:19;;;;;;;8.27;3.60;;;8.30;99.90;;;;;;5015478;28;20279;-48
2022/10/09 06:03:50;;;;;;;7.00;3.77;;;8.20;99.90;;;;;;5015197;28;20239;-47
2022/10/09 06:06:21;;;;;;;11.53;4.50;;;8.30;99.90;;;;;;5016591;28;20228;-49
2022/10/09 06:08:49;;;;;;;10.00;4.20;;;8.20;99.90;;;;;;5004578;28;20229;-46
2022/10/09 06:11:19;;;;;;;9.37;4.43;;;8.20;99.90;;;;;;5015551;28;20295;-47
2022/10/09 06:13:48;;;;;;;6.17;4.40;;;8.30;99.90;;;;;;5016085;28;20226;-46
2022/10/09 06:16:17;;;;;;;7.50;4.80;;;8.30;99.90;;;;;;5014934;28;20228;-46
2022/10/09 06:18:47;;;;;;;9.60;4.40;;;8.30;99.90;;;;;;5015769;28;20229;-47
2022/10/09 06:21:17;;;;;;;9.43;4.83;;;8.30;99.90;;;;;;5016164;28;20225;-49
2022/10/09 06:23:49;;;;;;;6.07;4.50;;;8.40;99.90;;;;;;5016085;28;20681;-50
2022/10/09 06:26:18;;;;;;;8.67;4.77;;;8.40;99.90;;;;;;5016267;28;20704;-49
2022/10/09 06:28:47;;;;;;;9.20;5.00;;;8.40;99.90;;;;;;5015121;28;20233;-47
2022/10/09 06:31:16;;;;;;;7.73;5.03;;;8.40;99.90;;;;;;5015591;28;20236;-48
2022/10/09 06:33:46;;;;;;;6.97;4.37;;;8.50;99.90;;;;;;5015982;28;20245;-50
2022/10/09 06:36:16;;;;;;;10.03;4.90;;;8.50;99.90;;;;;;5016301;28;20241;-49
2022/10/09 06:38:46;;;;;;;9.00;5.07;;;8.50;99.90;;;;;;5015873;28;20230;-49
2022/10/09 06:41:15;;;;;;;8.57;5.27;;;8.60;99.90;;;;;;5012365;28;20825;-47
2022/10/09 06:43:48;;;;;;;11.87;5.20;;;8.70;99.90;;;;;;5023801;28;20224;-47
2022/10/09 06:46:16;;;;;;;8.73;5.20;;;8.70;99.90;;;;;;5025536;28;20228;-47
2022/10/09 06:48:44;;;;;;;10.23;5.03;;;8.80;99.90;;;;;;5023084;28;20305;-49
2022/10/09 06:51:14;;;;;;;7.90;4.93;;;8.90;99.90;;;;;;5026739;28;20271;-48
2022/10/09 06:53:44;;;;;;;9.30;5.43;;;8.90;99.90;;;;;;5024085;28;20240;-49
2022/10/09 06:56:14;;;;;;;9.77;5.83;;;9.00;99.90;;;;;;5027103;28;20283;-47
2022/10/09 06:58:42;;;;;;;8.33;5.30;;;9.00;99.90;;;;;;5028256;28;20235;-49
2022/10/09 07:01:12;;;;;;;11.67;5.83;;;9.00;99.90;;;;;;5027811;28;20251;-48
2022/10/09 07:03:42;;;;;;;9.30;5.30;;;9.10;99.90;;;;;;5029167;28;20225;-49
2022/10/09 07:06:12;;;;;;;8.87;5.67;;;9.10;99.90;;;;;;5026371;28;20244;-49
2022/10/09 07:08:41;;;;;;;11.33;6.00;;;9.20;99.90;;;;;;5025715;28;20248;-49
2022/10/09 07:11:11;;;;;;;8.07;5.50;;;9.30;99.90;;;;;;5027628;28;20244;-49
2022/10/09 07:13:41;;;;;;;8.80;6.10;;;9.40;99.90;;;;;;5025829;28;20700;-49
2022/10/09 07:16:10;;;;;;;8.30;5.63;;;9.50;99.90;;;;;;5026577;28;20225;-49
2022/10/09 07:18:39;;;;;;;10.20;5.40;;;9.60;99.90;;;;;;5026991;28;20311;-49
2022/10/09 07:21:08;;;;;;;8.37;5.90;;;9.70;99.90;;;;;;5028434;28;20224;-50
2022/10/09 07:23:37;;;;;;;12.03;5.87;;;9.80;99.90;;;;;;5028846;28;20226;-50
2022/10/09 07:26:10;;;;;;;11.87;6.10;;;10.00;99.90;;;;;;5028627;28;20283;-47
2022/10/09 07:28:41;;;;;;;11.07;5.77;;;10.20;99.90;;;;;;5026043;28;20225;-48
2022/10/09 07:31:10;;;;;;;9.97;5.60;;;10.30;99.90;;;;;;5023420;28;20268;-47
2022/10/09 07:33:38;;;;;;;6.27;5.17;;;10.40;99.90;;;;;;5025776;28;20268;-48
2022/10/09 07:36:07;;;;;;;10.83;5.60;;;10.60;99.90;;;;;;5026432;28;20228;-48
2022/10/09 07:38:36;;;;;;;6.73;5.33;;;10.80;99.90;;;;;;5028939;28;20235;-49
2022/10/09 07:41:06;;;;;;;12.63;5.80;;;11.00;99.90;;;;;;5025269;28;20597;-50
2022/10/09 07:43:35;;;;;;;8.90;5.40;;;11.10;99.90;;;;;;5027141;28;20229;-49
2022/10/09 07:46:07;;;;;;;10.73;5.07;;;11.30;99.90;;;;;;5028698;28;20235;-49
2022/10/09 07:48:35;;;;;;;11.37;4.80;;;11.50;99.90;;;;;;5023412;28;20226;-50
2022/10/09 07:51:08;;;;;;;7.53;4.80;;;11.70;99.90;;;;;;5026182;28;20242;-49
2022/10/09 07:53:37;;;;;;;10.07;5.40;;;11.80;99.90;;;;;;5027089;28;20223;-51
2022/10/09 07:56:06;;;;;;;8.30;4.93;;;12.00;99.90;;;;;;5024873;28;20289;-50
2022/10/09 07:58:34;;;;;;;7.97;4.80;;;12.20;99.90;;;;;;5025938;28;20324;-49
2022/10/09 08:01:08;;;;;;;7.97;5.03;;;12.30;99.90;;;;;;5027559;28;20236;-49
2022/10/09 08:03:37;;;;;;;10.77;4.60;;;12.40;99.90;;;;;;5028233;28;20233;-49
2022/10/09 08:06:06;;;;;;;7.80;4.87;;;12.50;99.90;;;;;;5027117;28;20563;-50
2022/10/09 08:08:34;;;;;;;9.13;5.07;;;12.70;99.90;;;;;;5029001;28;20241;-48
2022/10/09 08:11:09;;;;;;;8.60;4.33;;;12.90;99.90;;;;;;5028263;28;20671;-48
2022/10/09 08:13:37;;;;;;;9.13;4.40;;;13.10;99.90;;;;;;5027346;28;20222;-48
2022/10/09 08:16:07;;;;;;;9.80;4.90;;;13.20;99.90;;;;;;5027222;28;20239;-49
2022/10/09 08:18:36;;;;;;;5.77;4.37;;;13.30;99.90;;;;;;5024170;28;20219;-50
2022/10/09 08:21:07;;;;;;;7.97;4.37;;;13.50;99.90;;;;;;5026451;28;20231;-48
2022/10/09 08:23:35;;;;;;;8.73;4.77;;;13.60;99.90;;;;;;5027167;28;20215;-51
2022/10/09 08:26:04;;;;;;;6.73;4.00;;;13.70;99.90;;;;;;5028535;28;20225;-51
2022/10/09 08:28:32;;;;;;;7.10;4.30;;;13.80;99.90;;;;;;5027992;28;20702;-49
2022/10/09 08:31:00;;;;;;;7.53;4.57;;;13.90;99.90;;;;;;5025482;28;20362;-50
2022/10/09 08:33:29;;;;;;;8.37;4.10;;;13.90;99.90;;;;;;5025098;28;20754;-51
2022/10/09 08:36:06;;;;;;;8.30;3.90;;;14.00;99.90;;;;;;5021010;28;20228;-48
2022/10/09 08:38:34;;;;;;;8.87;3.60;;;14.10;99.90;;;;;;5025106;28;20725;-48
2022/10/09 08:41:26;;;;;;;9.10;4.10;;;14.10;99.90;;;;;;5022888;28;20240;-48
2022/10/09 08:44:01;;;;;;;8.93;3.67;;;14.20;99.90;;;;;;5023756;28;20231;-49
2022/10/09 08:46:35;;;;;;;6.70;3.33;;;14.20;99.90;;;;;;5023462;28;20696;-49
2022/10/09 08:49:05;;;;;;;5.07;3.07;;;14.30;99.90;;;;;;5021658;28;20698;-48
2022/10/09 08:51:38;;;;;;;7.47;3.77;;;14.50;99.90;;;;;;5024027;28;20233;-49
2022/10/09 08:54:21;;;;;;;7.77;3.80;;;14.60;99.90;;;;;;5023747;28;20221;-49
2022/10/09 08:56:52;;;;;;;9.00;3.57;;;14.80;99.90;;;;;;5026031;28;20229;-48
2022/10/09 08:59:20;;;;;;;8.60;3.70;;;15.00;99.90;;;;;;5025543;28;20310;-48
2022/10/09 09:01:52;;;;;;;6.27;3.60;;;15.20;99.90;;;;;;5023607;28;20351;-50
2022/10/09 09:04:33;;;;;;;7.63;3.67;;;15.40;99.90;;;;;;5025286;28;20300;-49
2022/10/09 09:07:09;;;;;;;8.63;4.23;;;15.60;99.90;;;;;;5024876;28;20223;-50
2022/10/09 09:09:45;;;;;;;7.83;3.67;;;15.60;99.90;;;;;;5024411;28;20769;-48
2022/10/09 09:12:20;;;;;;;6.83;3.70;;;15.60;99.90;;;;;;5025837;28;20255;-50
2022/10/09 09:15:01;;;;;;;7.23;3.73;;;15.70;99.90;;;;;;5021661;28;20255;-48
2022/10/09 09:17:40;;;;;;;6.30;3.13;;;15.90;99.90;;;;;;5012251;28;20229;-48
2022/10/09 09:20:16;;;;;;;7.30;3.60;;;16.00;99.90;;;;;;5012396;28;20233;-48
2022/10/09 09:22:48;;;;;;;10.20;3.53;;;16.10;99.90;;;;;;5011531;28;20233;-50
2022/10/09 09:25:21;;;;;;;8.20;3.60;;;16.30;99.90;;;;;;5012014;28;20256;-50
2022/10/09 09:27:51;;;;;;;8.10;3.53;;;16.30;99.90;;;;;;5011643;28;20686;-50
2022/10/09 09:30:23;;;;;;;5.97;2.97;;;16.40;99.90;;;;;;5010036;28;20225;-50
2022/10/09 09:32:59;;;;;;;7.43;3.60;;;16.60;99.90;;;;;;5012582;28;20233;-50
2022/10/09 09:35:35;;;;;;;8.10;3.40;;;16.70;99.90;;;;;;5011269;28;20221;-49
2022/10/09 09:38:04;;;;;;;9.70;3.37;;;16.70;99.90;;;;;;5012501;28;20243;-49
2022/10/09 09:40:34;;;;;;;6.33;3.27;;;16.90;99.90;;;;;;5012388;28;20275;-50
2022/10/09 09:43:14;;;;;;;6.00;3.20;;;17.00;99.90;;;;;;5012594;28;20316;-47
2022/10/09 09:45:43;;;;;;;6.63;3.13;;;17.00;99.90;;;;;;5012180;28;20220;-48
2022/10/09 09:48:16;;;;;;;6.70;2.70;;;16.70;99.90;;;;;;5012741;28;20578;-49
2022/10/09 09:50:46;;;;;;;5.90;2.70;;;16.80;99.90;;;;;;5012575;28;20237;-50
2022/10/09 09:53:37;;;;;;;8.77;2.97;;;17.00;99.90;;;;;;5012458;28;20225;-49
2022/10/09 09:56:06;;;;;;;6.63;2.77;;;17.00;99.90;;;;;;5012881;28;20582;-47
2022/10/09 09:58:38;;;;;;;5.27;2.67;;;17.00;99.90;;;;;;5012395;28;20229;-50
2022/10/09 10:01:07;;;;;;;8.63;2.70;;;16.90;99.90;;;;;;5012182;28;20256;-50
2022/10/09 10:03:36;;;;;;;9.90;2.83;;;17.00;99.90;;;;;;5012041;28;20234;-49
2022/10/09 10:06:22;;;;;;;5.47;2.30;;;17.00;99.90;;;;;;5012365;28;20280;-50
2022/10/09 10:09:01;;;;;;;5.57;2.40;;;17.10;99.90;;;;;;5012698;28;20234;-50
2022/10/09 10:11:31;;;;;;;4.87;2.10;;;17.10;99.90;;;;;;5012061;28;20255;-49
2022/10/09 10:14:06;;;;;;;5.10;2.47;;;17.10;99.90;;;;;;5011999;28;20283;-49
2022/10/09 10:16:37;;;;;;;9.10;2.60;;;17.20;99.90;;;;;;5012116;28;20715;-51
2022/10/09 10:19:05;;;;;;;7.37;2.40;;;17.20;99.90;;;;;;5011916;28;20253;-51
2022/10/09 10:21:46;;;;;;;6.37;2.67;;;17.30;99.90;;;;;;5012226;28;20217;-48
2022/10/09 10:24:21;;;;;;;7.30;1.97;;;17.50;99.90;;;;;;5012274;28;20225;-49
2022/10/09 10:26:54;;;;;;;7.67;2.33;;;17.50;99.90;;;;;;5012578;28;20241;-49
2022/10/09 10:29:29;;;;;;;6.67;2.10;;;17.30;99.90;;;;;;5012094;28;20566;-48
2022/10/09 10:32:04;;;;;;;9.80;2.70;;;17.20;99.90;;;;;;5011732;28;20234;-48
2022/10/09 10:34:36;;;;;;;5.10;1.80;;;17.10;99.90;;;;;;5010913;28;20233;-49
2022/10/09 10:37:25;;;;;;;5.93;2.00;;;17.30;99.90;;;;;;5011696;28;20225;-50
2022/10/09 10:39:59;;;;;;;6.47;1.90;;;17.30;99.90;;;;;;5008264;28;20582;-50
2022/10/09 10:42:40;;;;;;;5.33;1.93;;;17.50;99.90;;;;;;5013229;28;20682;-50
2022/10/09 10:45:15;;;;;;;5.17;1.77;;;17.80;99.90;;;;;;5013355;28;20225;-48
2022/10/09 10:47:50;;;;;;;6.67;1.73;;;17.70;99.90;;;;;;5015473;28;20685;-49
2022/10/09 10:50:20;;;;;;;7.33;2.20;;;17.80;99.90;;;;;;5015718;28;20705;-49
2022/10/09 10:53:01;;;;;;;7.57;1.87;;;17.80;99.90;;;;;;5014916;28;20265;-48
2022/10/09 10:55:47;;;;;;;6.57;1.80;;;17.90;99.90;;;;;;5014198;28;20275;-49
2022/10/09 10:58:29;;;;;;;5.63;1.90;;;18.10;99.90;;;;;;5015098;28;20226;-50
2022/10/09 11:01:29;;;;;;;6.23;1.67;;;18.10;99.90;;;;;;5011901;28;20600;-50
2022/10/09 11:04:25;;;;;;;2.77;1.77;;;18.50;99.90;;;;;;5010368;28;20307;-48
2022/10/09 11:07:02;;;;;;;7.53;1.87;;;18.70;99.90;;;;;;5014776;28;20218;-48
2022/10/09 11:09:42;;;;;;;6.60;1.83;;;18.70;99.90;;;;;;5012636;28;20279;-48
2022/10/09 11:12:15;;;;;;;6.00;1.60;;;18.30;99.90;;;;;;5012909;28;20238;-51
2022/10/09 11:15:15;;;;;;;6.97;1.43;;;18.30;99.90;;;;;;5015094;28;20277;-51
2022/10/09 11:17:50;;;;;;;5.00;1.53;;;18.00;99.90;;;;;;5015039;28;20229;-48
2022/10/09 11:20:43;;;;;;;6.50;2.27;;;18.10;99.90;;;;;;5015132;28;20684;-48
2022/10/09 11:23:21;;;;;;;6.70;1.70;;;18.20;99.90;;;;;;5017892;28;20234;-47
2022/10/09 11:25:57;;;;;;;4.00;1.40;;;18.50;99.90;;;;;;5020724;28;20630;-51
2022/10/09 11:28:32;;;;;;;5.30;1.60;;;18.70;99.90;;;;;;5015225;28;20231;-49
2022/10/09 11:31:09;;;;;;;5.83;1.60;;;18.60;99.90;;;;;;5004787;28;20317;-51
2022/10/09 11:33:44;;;;;;;6.37;1.77;;;18.30;99.90;;;;;;5010510;28;20281;-50
2022/10/09 11:36:16;;;;;;;5.87;1.63;;;18.10;99.90;;;;;;5015142;28;20229;-50
2022/10/09 11:38:52;;;;;;;4.60;1.63;;;18.10;99.90;;;;;;5014956;28;20241;-50
2022/10/09 11:41:23;;;;;;;5.47;1.40;;;18.10;99.90;;;;;;5013158;28;20261;-51
2022/10/09 11:44:19;;;;;;;4.77;1.43;;;17.80;99.90;;;;;;5029921;28;20232;-52
2022/10/09 11:47:27;;;;;;;3.50;1.47;;;17.80;99.90;;;;;;5014387;28;20229;-49
2022/10/09 11:50:16;;;;;;;5.00;1.70;;;17.80;99.90;;;;;;5013622;28;20765;-50
2022/10/09 11:52:54;;;;;;;5.93;1.37;;;17.60;99.90;;;;;;5014149;28;20234;-50
2022/10/09 11:55:24;;;;;;;6.73;1.40;;;17.50;99.90;;;;;;5014401;28;20225;-48
2022/10/09 11:57:54;;;;;;;6.80;1.60;;;17.40;99.90;;;;;;5014690;28;20260;-50
2022/10/09 12:00:30;;;;;;;4.77;1.30;;;17.50;99.90;;;;;;5014252;28;20706;-50
2022/10/09 12:03:00;;;;;;;6.60;1.70;;;17.60;99.90;;;;;;5013431;28;20230;-48
2022/10/09 12:05:38;;;;;;;4.37;1.30;;;17.60;99.90;;;;;;5011265;28;20231;-51
2022/10/09 12:08:09;;;;;;;6.03;1.30;;;17.50;99.90;;;;;;5013793;28;20618;-50
2022/10/09 12:10:49;;;;;;;3.00;1.30;;;17.50;99.90;;;;;;5013619;28;20238;-49
2022/10/09 12:13:40;;;;;;;4.53;1.20;;;17.40;99.90;;;;;;5004356;28;20223;-50
2022/10/09 12:16:28;;;;;;;5.87;1.10;;;17.50;99.90;;;;;;5014224;28;20699;-48
2022/10/09 12:18:56;;;;;;;6.53;1.30;;;17.40;99.90;;;;;;5013801;28;20234;-51
2022/10/09 12:21:27;;;;;;;3.97;1.13;;;17.20;99.90;;;;;;5014002;28;20233;-48
2022/10/09 12:23:55;;;;;;;3.50;1.40;;;17.10;99.90;;;;;;5014164;28;20231;-48
2022/10/09 12:26:25;;;;;;;4.90;1.10;;;17.00;99.90;;;;;;5013905;28;20235;-49
2022/10/09 12:28:59;;;;;;;8.27;1.90;;;17.00;99.90;;;;;;5014002;28;20234;-51
2022/10/09 12:31:30;;;;;;;4.27;1.40;;;16.80;99.90;;;;;;5012382;28;20236;-52
2022/10/09 12:34:03;;;;;;;5.13;1.30;;;16.80;99.90;;;;;;5012822;28;20665;-49
2022/10/09 12:36:32;;;;;;;3.57;1.40;;;17.00;99.90;;;;;;5008697;28;20583;-48
2022/10/09 12:39:13;;;;;;;5.17;1.60;;;17.10;99.90;;;;;;5013875;28;20246;-50
2022/10/09 12:41:44;;;;;;;3.47;1.33;;;17.10;99.90;;;;;;5011984;28;20752;-51
2022/10/09 12:44:28;;;;;;;3.07;1.30;;;17.10;99.90;;;;;;5013860;28;20233;-48
2022/10/09 12:47:02;;;;;;;5.97;1.43;;;17.20;99.90;;;;;;5012787;28;20590;-49
2022/10/09 12:49:31;;;;;;;5.00;1.40;;;17.30;99.90;;;;;;5013404;28;20777;-51
2022/10/09 12:52:00;;;;;;;5.60;1.60;;;17.30;99.90;;;;;;5011200;28;20289;-51
2022/10/09 12:54:30;;;;;;;5.97;1.83;;;17.10;99.90;;;;;;5010488;28;20233;-51
2022/10/09 12:57:00;;;;;;;6.20;1.70;;;17.10;99.90;;;;;;5012931;28;20215;-50
2022/10/09 12:59:30;;;;;;;5.37;1.70;;;16.90;99.90;;;;;;5012722;28;20255;-50
2022/10/09 13:01:59;;;;;;;5.97;1.80;;;16.80;99.90;;;;;;5013021;28;20720;-47
2022/10/09 13:04:30;;;;;;;5.87;1.70;;;16.80;99.90;;;;;;5012958;28;20589;-48
2022/10/09 13:07:01;;;;;;;4.50;1.70;;;16.80;99.90;;;;;;5012645;28;20229;-56
2022/10/09 13:09:35;;;;;;;5.07;2.10;;;16.70;99.90;;;;;;5013176;28;20673;-55
2022/10/09 13:12:08;;;;;;;6.87;2.40;;;16.70;99.90;;;;;;5013183;28;20338;-56
2022/10/09 13:14:44;;;;;;;5.87;1.60;;;16.60;99.90;;;;;;5013305;28;20589;-56